Time;durP1;ratioP1;P1;durP2;ratioP2;P2;SDS_P1;SDS_P2;PMS_P1;PMS_P2;Temp;Humidity;BMP_temperature;BMP_pressure;BME280_temperature;BME280_humidity;BME280_pressure;Samples;Min_cycle;Max_cycle;Signal;HPM_P1;HPM_P2
2023/04/22 00:02:07;;;;;;;6.75;5.43;;;10.90;99.90;;;;;;4951346;28;20176;-48
2023/04/22 00:04:33;;;;;;;9.98;5.88;;;10.90;99.90;;;;;;4951392;28;20174;-47
2023/04/22 00:06:59;;;;;;;8.18;5.40;;;;;;;;;;4951314;28;20174;-49
2023/04/22 00:09:25;;;;;;;6.32;5.05;;;;;;;;;;4951173;28;20226;-48
2023/04/22 00:11:51;;;;;;;8.55;5.00;;;10.90;99.90;;;;;;4971100;28;20292;-49
2023/04/22 00:14:17;;;;;;;21.98;7.57;;;10.80;99.90;;;;;;4990195;28;20172;-51
2023/04/22 00:16:43;;;;;;;8.43;6.22;;;;;;;;;;4989864;28;20169;-47
2023/04/22 00:19:09;;;;;;;8.00;5.43;;;;;;;;;;4989867;28;20633;-48
2023/04/22 00:21:35;;;;;;;10.30;5.82;;;10.80;99.90;;;;;;4989731;28;20218;-47
2023/04/22 00:24:00;;;;;;;7.30;5.45;;;10.80;99.90;;;;;;4990026;28;20560;-49
2023/04/22 00:26:26;;;;;;;9.07;5.50;;;10.90;99.90;;;;;;4989675;28;20279;-47
2023/04/22 00:28:52;;;;;;;6.82;6.00;;;10.80;99.90;;;;;;4989562;28;20218;-48
2023/04/22 00:31:17;;;;;;;8.60;5.22;;;10.80;99.90;;;;;;4985091;28;20206;-47
2023/04/22 00:33:43;;;;;;;7.00;5.55;;;10.80;99.90;;;;;;4968154;28;20181;-48
2023/04/22 00:36:08;;;;;;;7.30;5.13;;;10.90;99.90;;;;;;4970186;28;20177;-46
2023/04/22 00:38:34;;;;;;;8.35;5.47;;;10.90;99.90;;;;;;4970047;28;20184;-47
2023/04/22 00:41:00;;;;;;;7.22;4.60;;;10.80;99.90;;;;;;4970186;28;20577;-46
2023/04/22 00:43:25;;;;;;;8.30;5.00;;;10.80;99.90;;;;;;4970026;28;20174;-47
2023/04/22 00:45:51;;;;;;;8.60;5.22;;;;;;;;;;4969967;28;20633;-47
2023/04/22 00:48:18;;;;;;;8.65;5.15;;;10.80;99.90;;;;;;4970444;28;20229;-46
2023/04/22 00:50:43;;;;;;;7.30;5.03;;;10.80;99.90;;;;;;4969838;28;20267;-46
2023/04/22 00:53:09;;;;;;;6.90;4.80;;;10.80;99.90;;;;;;4969972;28;20587;-47
2023/04/22 00:55:34;;;;;;;6.18;4.75;;;10.80;99.90;;;;;;4969827;28;20587;-47
2023/04/22 00:58:02;;;;;;;7.22;4.28;;;10.80;99.90;;;;;;4970043;28;20511;-47
2023/04/22 01:00:28;;;;;;;4.22;3.83;;;10.80;99.90;;;;;;4969958;28;20652;-48
2023/04/22 01:02:54;;;;;;;8.50;4.22;;;10.80;99.90;;;;;;4984932;28;20263;-52
2023/04/22 01:05:20;;;;;;;7.03;4.50;;;10.80;99.90;;;;;;4989394;28;20260;-47
2023/04/22 01:07:46;;;;;;;5.90;4.38;;;10.80;99.90;;;;;;4989334;28;20172;-47
2023/04/22 01:10:12;;;;;;;5.63;4.60;;;10.80;99.90;;;;;;4988900;28;20224;-47
2023/04/22 01:12:37;;;;;;;4.75;4.20;;;10.80;99.90;;;;;;4989031;28;20172;-50
2023/04/22 01:15:04;;;;;;;5.35;4.68;;;10.80;99.90;;;;;;4988996;28;20259;-47
2023/04/22 01:17:30;;;;;;;6.72;4.80;;;10.70;99.90;;;;;;4989227;28;20176;-51
2023/04/22 01:19:57;;;;;;;5.22;3.90;;;10.70;99.90;;;;;;4989219;28;20254;-52
2023/04/22 01:22:26;;;;;;;6.43;4.28;;;10.70;99.90;;;;;;4989236;28;20219;-46
2023/04/22 01:24:52;;;;;;;8.23;5.18;;;10.70;99.90;;;;;;4988940;28;20305;-46
2023/04/22 01:27:18;;;;;;;5.63;4.50;;;10.70;99.90;;;;;;4989232;28;20169;-47
2023/04/22 01:29:44;;;;;;;8.82;5.30;;;10.80;99.90;;;;;;4988778;28;20172;-47
2023/04/22 01:32:09;;;;;;;7.72;5.50;;;10.70;99.90;;;;;;4978741;28;20293;-47
2023/04/22 01:34:35;;;;;;;7.57;6.18;;;10.70;99.90;;;;;;4969266;28;20746;-46
2023/04/22 01:37:00;;;;;;;10.52;7.68;;;10.70;99.90;;;;;;4969310;28;20693;-47
2023/04/22 01:39:26;;;;;;;9.55;7.55;;;10.70;99.90;;;;;;4968038;28;20170;-47
2023/04/22 01:41:52;;;;;;;11.02;7.68;;;10.70;99.90;;;;;;4969265;28;20205;-47
2023/04/22 01:44:18;;;;;;;11.20;8.35;;;10.60;99.90;;;;;;4970797;28;20625;-47
2023/04/22 01:46:44;;;;;;;11.77;8.10;;;10.60;99.90;;;;;;4969327;28;20170;-46
2023/04/22 01:49:10;;;;;;;15.93;12.02;;;;;;;;;;4969339;28;20170;-48
2023/04/22 01:51:36;;;;;;;15.23;11.93;;;;;;;;;;4969070;28;20209;-48
2023/04/22 01:54:03;;;;;;;18.15;12.32;;;10.70;99.90;;;;;;4969167;28;20688;-49
2023/04/22 01:56:28;;;;;;;17.00;12.50;;;10.70;99.90;;;;;;4969283;28;20615;-50
2023/04/22 01:58:54;;;;;;;18.58;12.65;;;;;;;;;;4968984;28;20197;-48
2023/04/22 02:01:20;;;;;;;23.70;13.40;;;;;;;;;;4974630;28;20267;-48
2023/04/22 02:03:46;;;;;;;18.58;13.68;;;10.80;99.90;;;;;;4988773;28;20173;-47
2023/04/22 02:06:11;;;;;;;20.15;13.32;;;10.80;99.90;;;;;;4988465;28;20171;-50
2023/04/22 02:08:37;;;;;;;17.33;12.40;;;;;;;;;;4988190;28;20172;-47
2023/04/22 02:11:03;;;;;;;17.95;12.82;;;10.70;99.90;;;;;;4987831;28;20707;-48
2023/04/22 02:13:39;;;;;;;17.33;13.32;;;10.70;99.90;;;;;;4984599;28;20172;-49
2023/04/22 02:16:06;;;;;;;16.45;11.88;;;10.70;99.90;;;;;;4972231;28;20169;-48
2023/04/22 02:18:31;;;;;;;17.20;13.52;;;10.70;99.90;;;;;;4972392;28;20169;-51
2023/04/22 02:20:57;;;;;;;19.27;13.10;;;10.70;99.90;;;;;;4972221;28;20249;-46
2023/04/22 02:23:23;;;;;;;17.85;12.27;;;10.70;99.90;;;;;;4972472;28;20649;-48
2023/04/22 02:25:50;;;;;;;16.17;12.38;;;10.70;99.90;;;;;;4972453;28;20169;-49
2023/04/22 02:28:15;;;;;;;17.83;12.93;;;10.70;99.90;;;;;;4972454;28;20173;-49
2023/04/22 02:30:41;;;;;;;18.10;13.30;;;;;;;;;;4971957;28;20258;-50
2023/04/22 02:33:07;;;;;;;17.52;12.38;;;10.70;99.90;;;;;;4991295;28;20255;-48
2023/04/22 02:35:33;;;;;;;19.02;13.13;;;10.70;99.90;;;;;;4991376;28;20187;-49
2023/04/22 02:37:58;;;;;;;19.50;12.60;;;10.80;99.90;;;;;;4991388;28;20252;-49
2023/04/22 02:40:24;;;;;;;13.88;11.68;;;10.80;99.90;;;;;;4991161;28;20181;-49
2023/04/22 02:42:50;;;;;;;17.45;12.93;;;10.70;99.90;;;;;;4990517;28;20165;-49
2023/04/22 02:45:15;;;;;;;15.40;12.10;;;10.70;99.90;;;;;;4991643;28;20172;-48
2023/04/22 02:47:41;;;;;;;14.85;11.60;;;10.70;99.90;;;;;;4990020;28;20180;-51
2023/04/22 02:50:07;;;;;;;17.52;12.20;;;10.70;99.90;;;;;;4991043;28;20225;-52
2023/04/22 02:52:33;;;;;;;17.02;13.07;;;;;;;;;;4991074;28;20212;-51
2023/04/22 02:55:00;;;;;;;15.82;12.25;;;10.70;99.90;;;;;;4991106;28;20306;-47
2023/04/22 02:57:25;;;;;;;15.82;11.88;;;10.70;99.90;;;;;;4991111;28;20655;-48
2023/04/22 02:59:52;;;;;;;16.23;11.52;;;10.70;99.90;;;;;;4991063;28;20180;-46
2023/04/22 03:02:17;;;;;;;16.42;11.90;;;10.70;99.90;;;;;;4975983;28;20169;-47
2023/04/22 03:04:43;;;;;;;14.10;11.13;;;10.70;99.90;;;;;;4971438;28;20177;-47
2023/04/22 03:07:09;;;;;;;13.70;10.93;;;10.70;99.90;;;;;;4971526;28;20166;-47
2023/04/22 03:09:34;;;;;;;14.85;11.07;;;10.70;99.90;;;;;;4970310;28;20304;-46
2023/04/22 03:12:01;;;;;;;14.85;10.73;;;10.70;99.90;;;;;;4971308;28;20562;-47
2023/04/22 03:14:26;;;;;;;14.00;10.52;;;10.70;99.90;;;;;;4971679;28;20173;-46
2023/04/22 03:16:52;;;;;;;12.75;9.50;;;;;;;;;;4971351;28;20512;-48
2023/04/22 03:19:18;;;;;;;11.25;8.90;;;10.70;99.90;;;;;;4971820;28;20238;-51
2023/04/22 03:21:44;;;;;;;10.70;7.70;;;10.60;99.90;;;;;;4971366;28;20256;-47
2023/04/22 03:24:09;;;;;;;12.60;8.48;;;10.60;99.90;;;;;;4971022;28;21141;-50
2023/04/22 03:26:35;;;;;;;11.48;8.23;;;;;;;;;;4971103;28;20546;-49
2023/04/22 03:29:01;;;;;;;10.52;8.52;;;10.60;99.90;;;;;;4971099;28;20174;-47
2023/04/22 03:31:26;;;;;;;16.50;9.25;;;10.60;99.90;;;;;;4973464;28;20212;-47
2023/04/22 03:33:52;;;;;;;12.77;8.40;;;10.60;99.90;;;;;;4970994;28;20683;-47
2023/04/22 03:36:17;;;;;;;13.00;8.35;;;10.60;99.90;;;;;;4971342;28;20625;-50
2023/04/22 03:38:43;;;;;;;11.05;8.50;;;;;;;;;;4970982;28;20242;-47
2023/04/22 03:41:09;;;;;;;14.00;9.43;;;10.50;99.90;;;;;;4971051;28;20512;-47
2023/04/22 03:43:35;;;;;;;11.98;9.43;;;10.50;99.90;;;;;;4970884;28;20201;-47
2023/04/22 03:46:00;;;;;;;12.20;9.68;;;10.60;99.90;;;;;;4970763;28;20173;-48
2023/04/22 03:48:27;;;;;;;12.13;8.68;;;10.60;99.90;;;;;;4970833;28;20287;-48
2023/04/22 03:50:53;;;;;;;11.38;8.32;;;10.60;99.90;;;;;;4969763;28;20290;-47
2023/04/22 03:53:19;;;;;;;11.98;8.20;;;10.70;99.90;;;;;;4970833;28;20633;-49
2023/04/22 03:55:44;;;;;;;11.05;8.20;;;10.60;99.90;;;;;;4970956;28;20170;-47
2023/04/22 03:58:10;;;;;;;10.10;7.97;;;;;;;;;;4970663;28;20220;-48
2023/04/22 04:00:36;;;;;;;11.18;8.18;;;10.70;99.90;;;;;;4970708;28;20166;-47
2023/04/22 04:03:01;;;;;;;11.73;8.43;;;10.60;99.90;;;;;;4970495;28;20201;-47
2023/04/22 04:05:27;;;;;;;11.27;8.30;;;;;;;;;;4970575;28;20165;-47
2023/04/22 04:07:53;;;;;;;8.65;7.65;;;10.70;99.90;;;;;;4970681;28;20186;-48
2023/04/22 04:10:19;;;;;;;12.55;8.38;;;;;;;;;;4973289;28;20209;-47
2023/04/22 04:12:44;;;;;;;11.73;7.90;;;10.80;99.90;;;;;;4988106;28;22024;-47
2023/04/22 04:15:10;;;;;;;13.45;8.25;;;10.70;99.90;;;;;;4970445;28;20252;-46
2023/04/22 04:17:36;;;;;;;10.40;7.82;;;10.80;99.90;;;;;;4970470;28;20256;-47
2023/04/22 04:20:02;;;;;;;8.95;7.38;;;;;;;;;;4969212;28;20547;-47
2023/04/22 04:22:28;;;;;;;9.13;6.60;;;10.70;99.90;;;;;;4970399;28;20585;-47
2023/04/22 04:24:54;;;;;;;8.88;7.30;;;10.70;99.90;;;;;;4970515;28;20189;-48
2023/04/22 04:27:22;;;;;;;10.55;6.68;;;10.70;99.90;;;;;;4970498;28;20302;-47
2023/04/22 04:29:48;;;;;;;8.45;6.63;;;;;;;;;;4971707;28;20185;-47
2023/04/22 04:32:14;;;;;;;12.20;6.00;;;;;;;;;;4989291;28;20204;-46
2023/04/22 04:34:41;;;;;;;9.35;6.90;;;10.70;99.90;;;;;;4989606;28;20537;-49
2023/04/22 04:37:06;;;;;;;9.20;6.22;;;10.70;99.90;;;;;;4988832;28;20181;-48
2023/04/22 04:39:32;;;;;;;8.48;6.53;;;10.70;99.90;;;;;;4989514;28;20175;-50
2023/04/22 04:41:59;;;;;;;10.68;7.25;;;10.70;99.90;;;;;;4989563;28;20233;-48
2023/04/22 04:44:30;;;;;;;8.32;6.47;;;10.80;99.90;;;;;;4989360;28;20540;-46
2023/04/22 04:46:56;;;;;;;8.02;6.40;;;10.70;99.90;;;;;;4989576;28;20255;-50
2023/04/22 04:49:22;;;;;;;7.07;6.28;;;10.70;99.90;;;;;;4989466;28;20260;-46
2023/04/22 04:51:48;;;;;;;7.57;6.75;;;10.80;99.90;;;;;;4970584;28;20295;-51
2023/04/22 04:54:14;;;;;;;8.95;6.43;;;10.80;99.90;;;;;;4970264;28;20184;-50
2023/04/22 04:56:39;;;;;;;8.00;5.82;;;10.80;99.90;;;;;;4969829;28;20251;-50
2023/04/22 04:59:05;;;;;;;8.65;6.22;;;;;;;;;;4969864;28;20169;-47
2023/04/22 05:01:31;;;;;;;6.75;5.75;;;10.90;99.90;;;;;;4969834;28;20178;-46
2023/04/22 05:03:56;;;;;;;7.78;5.82;;;;;;;;;;4969773;28;20637;-46
2023/04/22 05:06:22;;;;;;;8.82;6.40;;;;;;;;;;4970035;28;20709;-47
2023/04/22 05:08:48;;;;;;;10.85;6.22;;;10.90;99.90;;;;;;4970218;28;20208;-47
2023/04/22 05:11:14;;;;;;;9.15;5.88;;;10.90;99.90;;;;;;4985635;28;20278;-46
2023/04/22 05:13:40;;;;;;;6.75;6.00;;;;;;;;;;4989220;28;20255;-47
2023/04/22 05:16:06;;;;;;;9.35;6.72;;;;;;;;;;4989088;28;20615;-47
2023/04/22 05:18:31;;;;;;;7.72;6.22;;;11.10;99.90;;;;;;4988994;28;20173;-47
2023/04/22 05:21:02;;;;;;;7.03;6.28;;;11.10;99.90;;;;;;4988963;28;20177;-48
2023/04/22 05:23:29;;;;;;;7.72;5.85;;;11.20;99.90;;;;;;4989187;28;20169;-47
2023/04/22 05:25:55;;;;;;;6.30;5.60;;;11.20;99.90;;;;;;4989067;28;20180;-47
2023/04/22 05:28:21;;;;;;;7.00;5.78;;;11.20;99.90;;;;;;4988891;28;20161;-48
2023/04/22 05:30:46;;;;;;;10.05;6.28;;;11.20;99.90;;;;;;4988972;28;20698;-47
2023/04/22 05:33:12;;;;;;;8.02;5.75;;;11.30;99.90;;;;;;4989064;28;20637;-47
2023/04/22 05:35:37;;;;;;;6.38;5.70;;;11.40;99.90;;;;;;4987510;28;20268;-51
2023/04/22 05:38:03;;;;;;;9.65;5.20;;;11.50;99.90;;;;;;4988336;28;20196;-47
2023/04/22 05:40:29;;;;;;;7.43;5.40;;;;;;;;;;4988766;28;20180;-46
2023/04/22 05:42:56;;;;;;;6.53;5.50;;;11.50;99.90;;;;;;4988655;28;20165;-47
2023/04/22 05:45:22;;;;;;;6.50;4.88;;;11.50;99.90;;;;;;4988923;28;20177;-46
2023/04/22 05:47:47;;;;;;;6.43;5.25;;;11.50;99.90;;;;;;4989664;28;20221;-46
2023/04/22 05:50:13;;;;;;;6.78;5.85;;;11.50;99.90;;;;;;4973547;28;20249;-47
2023/04/22 05:52:39;;;;;;;9.20;5.95;;;11.50;99.90;;;;;;4972472;28;20614;-46
2023/04/22 05:55:05;;;;;;;7.22;5.43;;;11.60;99.90;;;;;;4972473;28;20571;-47
2023/04/22 05:57:31;;;;;;;7.80;5.45;;;11.60;99.90;;;;;;4972463;28;20196;-46
2023/04/22 05:59:57;;;;;;;5.95;5.35;;;11.70;99.90;;;;;;4976443;28;20661;-47
2023/04/22 06:02:23;;;;;;;5.80;5.22;;;11.80;99.90;;;;;;4983430;28;20174;-47
2023/04/22 06:04:48;;;;;;;6.30;5.32;;;11.80;99.90;;;;;;4972784;28;20177;-47
2023/04/22 06:07:14;;;;;;;6.78;5.38;;;;;;;;;;4972447;28;20165;-47
2023/04/22 06:09:40;;;;;;;5.97;5.05;;;11.90;99.90;;;;;;4972219;28;20586;-47
2023/04/22 06:12:06;;;;;;;6.50;5.15;;;;;;;;;;4990295;28;20208;-47
2023/04/22 06:14:32;;;;;;;5.80;4.95;;;;;;;;;;4991835;28;20172;-47
2023/04/22 06:16:58;;;;;;;6.35;4.80;;;12.10;99.90;;;;;;4991656;28;20252;-47
2023/04/22 06:19:23;;;;;;;6.80;4.85;;;12.10;99.90;;;;;;4991723;28;20165;-48
2023/04/22 06:21:49;;;;;;;4.95;4.40;;;;;;;;;;4988651;28;20611;-47
2023/04/22 06:24:15;;;;;;;6.35;4.78;;;12.40;99.90;;;;;;4972693;28;20173;-47
2023/04/22 06:26:40;;;;;;;7.45;4.63;;;12.40;99.90;;;;;;4972127;28;20214;-47
2023/04/22 06:29:06;;;;;;;7.07;4.47;;;12.50;99.90;;;;;;4972257;28;20300;-47
2023/04/22 06:31:32;;;;;;;5.00;4.45;;;;;;;;;;4972106;28;20209;-47
2023/04/22 06:33:58;;;;;;;6.15;4.65;;;12.70;99.90;;;;;;4972265;28;20173;-47
2023/04/22 06:36:24;;;;;;;5.95;4.78;;;12.70;99.90;;;;;;4972269;28;20194;-47
2023/04/22 06:38:49;;;;;;;5.75;4.72;;;12.80;99.90;;;;;;4972006;28;20170;-47
2023/04/22 06:41:16;;;;;;;8.27;4.97;;;12.80;99.90;;;;;;4972484;28;20170;-47
2023/04/22 06:43:41;;;;;;;5.72;5.13;;;12.90;99.90;;;;;;4970945;28;20626;-47
2023/04/22 06:46:07;;;;;;;7.45;4.70;;;13.10;99.90;;;;;;4971865;28;20176;-48
2023/04/22 06:48:33;;;;;;;9.93;4.57;;;13.10;99.90;;;;;;4971736;28;20173;-47
2023/04/22 06:51:00;;;;;;;5.57;4.57;;;13.00;99.90;;;;;;4971685;28;20259;-47
2023/04/22 06:53:25;;;;;;;7.63;4.30;;;13.00;99.90;;;;;;4971182;28;20593;-46
2023/04/22 06:55:53;;;;;;;7.00;5.20;;;;;;;;;;4971791;28;20205;-47
2023/04/22 06:58:19;;;;;;;8.00;5.18;;;;;;;;;;4971674;28;20158;-47
2023/04/22 07:00:45;;;;;;;9.30;4.63;;;;;;;;;;4970874;28;20178;-47
2023/04/22 07:03:10;;;;;;;6.13;4.95;;;13.30;99.90;;;;;;4971731;28;20170;-46
2023/04/22 07:05:36;;;;;;;6.13;4.95;;;13.40;99.90;;;;;;4971506;28;20719;-46
2023/04/22 07:08:02;;;;;;;5.70;4.20;;;13.40;99.90;;;;;;4970152;28;20629;-47
2023/04/22 07:10:27;;;;;;;4.95;4.47;;;13.50;99.90;;;;;;4971298;28;20224;-47
2023/04/22 07:12:53;;;;;;;10.63;4.93;;;13.80;99.90;;;;;;4971524;28;20582;-46
2023/04/22 07:15:19;;;;;;;5.00;4.25;;;;;;;;;;4971568;28;20162;-47
2023/04/22 07:17:44;;;;;;;4.57;4.18;;;13.90;99.90;;;;;;4971835;28;20173;-47
2023/04/22 07:20:11;;;;;;;6.47;4.63;;;;;;;;;;4971426;28;20192;-47
2023/04/22 07:22:36;;;;;;;5.40;4.90;;;14.40;99.90;;;;;;4979767;28;20656;-47
2023/04/22 07:25:02;;;;;;;8.00;4.50;;;14.70;99.90;;;;;;4988998;28;20177;-47
2023/04/22 07:27:28;;;;;;;5.25;4.60;;;14.80;99.90;;;;;;4990983;28;20218;-48
2023/04/22 07:29:54;;;;;;;10.73;4.60;;;;;;;;;;4990702;28;20248;-46
2023/04/22 07:32:20;;;;;;;4.88;4.35;;;15.10;99.90;;;;;;4990384;28;20668;-46
2023/04/22 07:34:45;;;;;;;6.57;4.75;;;15.20;99.90;;;;;;4990991;28;20165;-46
2023/04/22 07:37:11;;;;;;;6.68;4.72;;;;;;;;;;4990484;28;20181;-46
2023/04/22 07:39:37;;;;;;;5.97;4.88;;;15.40;99.90;;;;;;4990542;28;20197;-47
2023/04/22 07:42:03;;;;;;;4.82;4.20;;;;;;;;;;4990413;28;20256;-46
2023/04/22 07:44:28;;;;;;;4.47;3.78;;;15.70;99.90;;;;;;4990509;28;20203;-47
2023/04/22 07:46:54;;;;;;;3.70;3.40;;;;;;;;;;4990374;28;20597;-46
2023/04/22 07:49:20;;;;;;;4.55;3.97;;;16.00;99.90;;;;;;4990356;28;20213;-47
2023/04/22 07:51:46;;;;;;;3.95;3.47;;;;;;;;;;4984814;28;20561;-47
2023/04/22 07:54:12;;;;;;;7.57;3.40;;;16.00;99.90;;;;;;4970803;28;20175;-47
2023/04/22 07:56:37;;;;;;;2.97;2.72;;;16.00;99.90;;;;;;4970922;28;20541;-46
2023/04/22 07:59:03;;;;;;;3.67;2.35;;;16.00;99.90;;;;;;4970681;28;20184;-46
2023/04/22 08:01:28;;;;;;;3.13;2.65;;;16.10;99.90;;;;;;4970771;28;20257;-46
2023/04/22 08:03:55;;;;;;;2.72;2.50;;;16.10;99.90;;;;;;4970745;28;20633;-47
2023/04/22 08:06:21;;;;;;;7.20;3.05;;;16.20;99.90;;;;;;4970846;28;20177;-46
2023/04/22 08:08:46;;;;;;;3.85;2.67;;;16.10;99.90;;;;;;4969718;28;20216;-47
2023/04/22 08:11:12;;;;;;;5.15;2.78;;;16.20;99.90;;;;;;4970478;28;20238;-46
2023/04/22 08:13:38;;;;;;;7.47;2.70;;;;;;;;;;4970674;28;20162;-47
2023/04/22 08:16:06;;;;;;;4.70;2.60;;;16.60;99.90;;;;;;4970620;28;20174;-46
2023/04/22 08:18:32;;;;;;;4.13;2.80;;;;;;;;;;4970644;28;20261;-46
2023/04/22 08:20:57;;;;;;;4.18;2.35;;;16.80;99.90;;;;;;4970419;28;20248;-46
2023/04/22 08:23:24;;;;;;;3.78;2.63;;;16.80;99.90;;;;;;4985739;28;20180;-47
2023/04/22 08:25:50;;;;;;;3.05;2.78;;;16.80;99.90;;;;;;4989764;28;20259;-46
2023/04/22 08:28:17;;;;;;;3.60;2.88;;;16.80;99.90;;;;;;4990027;28;20237;-47
2023/04/22 08:30:42;;;;;;;3.03;2.70;;;16.90;99.90;;;;;;4989919;28;20205;-46
2023/04/22 08:33:08;;;;;;;3.42;2.53;;;16.90;99.90;;;;;;4989465;28;20655;-46
2023/04/22 08:35:34;;;;;;;2.88;2.40;;;17.00;99.90;;;;;;4989735;28;20164;-47
2023/04/22 08:38:00;;;;;;;4.00;2.67;;;17.00;99.90;;;;;;4989632;28;20165;-47
2023/04/22 08:40:26;;;;;;;2.97;2.60;;;17.30;99.90;;;;;;4989583;28;20506;-47
2023/04/22 08:42:52;;;;;;;4.22;2.58;;;;;;;;;;4989554;28;20176;-47
2023/04/22 08:45:20;;;;;;;3.85;2.85;;;17.30;99.90;;;;;;4989484;28;20649;-46
2023/04/22 08:47:47;;;;;;;3.20;2.70;;;17.20;99.90;;;;;;4989863;28;20534;-46
2023/04/22 08:50:13;;;;;;;2.17;1.98;;;;;;;;;;4989810;28;20188;-46
2023/04/22 08:52:41;;;;;;;2.33;2.13;;;17.60;99.90;;;;;;4975734;28;20248;-47
2023/04/22 08:55:07;;;;;;;2.60;2.17;;;;;;;;;;4986326;28;20613;-46
2023/04/22 08:57:36;;;;;;;5.18;2.13;;;18.10;99.90;;;;;;4989302;28;20203;-47
2023/04/22 09:00:02;;;;;;;3.92;2.25;;;;;;;;;;4989323;28;20161;-47
2023/04/22 09:02:29;;;;;;;4.47;2.50;;;18.20;99.90;;;;;;4989440;28;20175;-47
2023/04/22 09:04:55;;;;;;;2.53;2.30;;;;;;;;;;4989513;28;20257;-47
2023/04/22 09:07:27;;;;;;;2.88;2.10;;;18.40;99.90;;;;;;4987962;28;20173;-47
2023/04/22 09:09:54;;;;;;;2.30;2.10;;;18.60;99.90;;;;;;4989109;28;20610;-47
2023/04/22 09:12:20;;;;;;;2.22;2.00;;;18.80;99.90;;;;;;4988972;28;20559;-47
2023/04/22 09:14:45;;;;;;;2.42;2.22;;;18.80;99.90;;;;;;4989660;28;20168;-47
2023/04/22 09:17:16;;;;;;;2.80;2.22;;;19.00;99.90;;;;;;4989038;28;20165;-47
2023/04/22 09:19:42;;;;;;;2.90;2.03;;;;;;;;;;4989080;28;20169;-46
2023/04/22 09:22:14;;;;;;;2.90;2.33;;;19.10;99.90;;;;;;4979267;28;20250;-46
2023/04/22 09:24:49;;;;;;;2.25;1.90;;;19.10;99.90;;;;;;4969772;28;20196;-46
2023/04/22 09:27:16;;;;;;;4.05;1.98;;;19.10;99.90;;;;;;4968342;28;20177;-48
2023/04/22 09:29:48;;;;;;;3.95;2.20;;;19.20;99.90;;;;;;4969691;28;20177;-49
2023/04/22 09:32:15;;;;;;;4.50;2.30;;;19.10;99.90;;;;;;4969599;28;20201;-47
2023/04/22 09:34:52;;;;;;;5.70;2.10;;;19.10;99.90;;;;;;4969454;28;20526;-47
2023/04/22 09:37:20;;;;;;;2.20;2.00;;;18.80;99.90;;;;;;4969619;28;20272;-47
2023/04/22 09:39:48;;;;;;;3.83;2.00;;;18.80;99.90;;;;;;4969696;28;20177;-47
2023/04/22 09:42:17;;;;;;;2.65;2.35;;;18.60;99.90;;;;;;4969963;28;20579;-47
2023/04/22 09:44:46;;;;;;;3.47;2.20;;;18.80;99.90;;;;;;4969957;28;20176;-46
2023/04/22 09:47:12;;;;;;;3.80;2.10;;;18.80;99.90;;;;;;4969201;28;20545;-47
2023/04/22 09:49:37;;;;;;;3.63;2.53;;;18.90;99.90;;;;;;4969138;28;20175;-46
2023/04/22 09:52:03;;;;;;;7.32;2.20;;;19.20;99.90;;;;;;4977247;28;20212;-46
2023/04/22 09:54:29;;;;;;;4.18;2.10;;;;;;;;;;4988644;28;20578;-46
2023/04/22 09:56:55;;;;;;;3.95;2.10;;;19.70;99.90;;;;;;4988830;28;20217;-46
2023/04/22 09:59:23;;;;;;;2.17;1.90;;;19.90;99.90;;;;;;4988479;28;20170;-47
2023/04/22 10:01:58;;;;;;;2.67;2.10;;;20.20;99.90;;;;;;4988119;28;20185;-49
2023/04/22 10:04:24;;;;;;;2.53;1.80;;;20.10;99.90;;;;;;4988558;28;20169;-49
2023/04/22 10:06:51;;;;;;;2.42;1.85;;;19.90;99.90;;;;;;4988698;28;20689;-50
2023/04/22 10:09:18;;;;;;;3.78;2.00;;;19.70;99.90;;;;;;4988659;28;20291;-47
2023/04/22 10:11:44;;;;;;;4.03;1.80;;;19.80;99.90;;;;;;4988742;28;20683;-47
2023/04/22 10:14:12;;;;;;;2.58;2.10;;;19.70;99.90;;;;;;4988207;28;20271;-50
2023/04/22 10:16:39;;;;;;;5.20;2.42;;;19.50;99.90;;;;;;4988429;28;20188;-46
2023/04/22 10:19:07;;;;;;;3.20;2.20;;;19.30;99.90;;;;;;4988494;28;20173;-46
2023/04/22 10:21:34;;;;;;;2.47;2.08;;;19.00;99.90;;;;;;4980844;28;20648;-47
2023/04/22 10:24:00;;;;;;;3.25;2.10;;;19.00;99.90;;;;;;4968341;28;20190;-49
2023/04/22 10:26:40;;;;;;;3.13;2.47;;;18.80;99.90;;;;;;4969015;28;20180;-48
2023/04/22 10:29:16;;;;;;;5.63;2.05;;;18.70;99.90;;;;;;4968715;28;20260;-47
2023/04/22 10:31:43;;;;;;;4.10;2.17;;;19.20;99.90;;;;;;4967386;28;20208;-46
2023/04/22 10:34:10;;;;;;;3.53;2.20;;;19.70;99.90;;;;;;4968901;28;20173;-48
2023/04/22 10:36:52;;;;;;;5.63;2.28;;;19.90;99.90;;;;;;4972121;28;20223;-47
2023/04/22 10:39:20;;;;;;;3.40;2.67;;;19.80;99.90;;;;;;4972076;28;20204;-47
2023/04/22 10:41:55;;;;;;;2.70;2.20;;;19.70;99.90;;;;;;4972405;28;20251;-46
2023/04/22 10:44:21;;;;;;;4.15;2.45;;;;;;;;;;4971581;28;20168;-47
2023/04/22 10:46:50;;;;;;;5.35;2.15;;;20.20;99.90;;;;;;4971876;28;20617;-46
2023/04/22 10:49:24;;;;;;;2.38;1.88;;;20.40;99.90;;;;;;4972041;28;20667;-46
2023/04/22 10:51:58;;;;;;;3.28;2.53;;;20.60;99.90;;;;;;4979965;28;20696;-48
2023/04/22 10:54:26;;;;;;;5.32;2.55;;;20.70;99.90;;;;;;4990831;28;20177;-46
2023/04/22 10:57:06;;;;;;;3.53;2.20;;;20.50;99.90;;;;;;4991342;28;20226;-47
2023/04/22 10:59:33;;;;;;;5.35;2.22;;;20.10;99.90;;;;;;4991094;28;20251;-46
2023/04/22 11:02:06;;;;;;;4.93;2.40;;;20.30;99.90;;;;;;4990953;28;20172;-47
2023/04/22 11:04:32;;;;;;;3.38;2.58;;;20.30;99.90;;;;;;4991021;28;20648;-48
2023/04/22 11:07:25;;;;;;;6.43;2.78;;;20.60;99.90;;;;;;4990890;28;20218;-47
2023/04/22 11:09:59;;;;;;;4.63;2.58;;;20.90;99.90;;;;;;4990640;28;20233;-46
2023/04/22 11:12:37;;;;;;;3.58;2.53;;;20.90;99.90;;;;;;4991146;28;20216;-49
2023/04/22 11:15:07;;;;;;;5.70;2.72;;;21.00;99.90;;;;;;4991105;28;20165;-47
2023/04/22 11:17:33;;;;;;;4.85;2.53;;;21.30;99.90;;;;;;4990691;28;20199;-47
2023/04/22 11:19:59;;;;;;;4.13;2.30;;;21.40;99.90;;;;;;4990683;28;20181;-46
2023/04/22 11:22:25;;;;;;;3.45;2.13;;;21.50;99.90;;;;;;4977318;28;20173;-47
2023/04/22 11:24:54;;;;;;;3.13;2.30;;;21.50;99.90;;;;;;4971206;28;20176;-47
2023/04/22 11:27:25;;;;;;;3.85;2.70;;;21.20;99.90;;;;;;4971282;28;20684;-47
2023/04/22 11:30:06;;;;;;;4.05;2.20;;;21.20;99.90;;;;;;4971008;28;20634;-46
2023/04/22 11:32:32;;;;;;;3.88;2.38;;;21.40;99.90;;;;;;4971184;28;20629;-47
2023/04/22 11:34:57;;;;;;;3.85;2.38;;;21.60;99.90;;;;;;4971057;28;20201;-47
2023/04/22 11:37:23;;;;;;;5.38;2.30;;;21.60;99.90;;;;;;4970885;28;20557;-47
2023/04/22 11:39:52;;;;;;;3.60;2.65;;;21.60;99.90;;;;;;4971091;28;20170;-46
2023/04/22 11:42:21;;;;;;;5.22;2.42;;;21.60;99.90;;;;;;4971064;28;20169;-47
2023/04/22 11:44:47;;;;;;;6.32;2.75;;;21.40;99.90;;;;;;4970163;28;20209;-47
2023/04/22 11:47:13;;;;;;;4.70;2.60;;;21.60;99.90;;;;;;4970945;28;20270;-46
2023/04/22 11:49:39;;;;;;;2.63;2.38;;;21.50;99.90;;;;;;4970139;28;20401;-46
2023/04/22 11:52:05;;;;;;;5.15;2.78;;;;;;;;;;4982877;28;20213;-46
2023/04/22 11:54:36;;;;;;;5.82;2.53;;;21.60;99.90;;;;;;4989989;28;20200;-47
2023/04/22 11:57:09;;;;;;;2.58;2.35;;;21.80;99.90;;;;;;4990553;28;20177;-47
2023/04/22 11:59:35;;;;;;;2.88;2.45;;;21.70;99.90;;;;;;4990476;28;20222;-46
2023/04/22 12:02:04;;;;;;;3.53;2.15;;;21.70;99.90;;;;;;4990266;28;20168;-47
2023/04/22 12:04:38;;;;;;;7.82;2.72;;;21.50;99.90;;;;;;4988837;28;20180;-47
2023/04/22 12:07:03;;;;;;;4.53;2.53;;;21.40;99.90;;;;;;4988922;28;20181;-47
2023/04/22 12:09:29;;;;;;;5.20;2.72;;;21.60;99.90;;;;;;4989908;28;20235;-48
2023/04/22 12:11:55;;;;;;;6.72;2.88;;;21.70;99.90;;;;;;4989899;28;20204;-46
2023/04/22 12:14:21;;;;;;;3.78;2.45;;;;;;;;;;4989983;28;20531;-46
2023/04/22 12:16:47;;;;;;;4.43;2.45;;;;;;;;;;4990313;28;20195;-47
2023/04/22 12:19:12;;;;;;;2.97;2.67;;;21.50;99.90;;;;;;4990488;28;20179;-49
2023/04/22 12:21:40;;;;;;;5.80;2.50;;;21.60;99.90;;;;;;4980681;28;20170;-48
2023/04/22 12:24:11;;;;;;;4.38;2.28;;;21.50;99.90;;;;;;4970379;28;20637;-47
2023/04/22 12:26:37;;;;;;;4.95;2.47;;;;;;;;;;4970328;28;20177;-47
2023/04/22 12:29:03;;;;;;;3.70;2.58;;;21.40;99.90;;;;;;4970235;28;20166;-47
2023/04/22 12:31:28;;;;;;;4.22;2.35;;;21.40;99.90;;;;;;4970117;28;20288;-47
2023/04/22 12:33:55;;;;;;;3.08;2.40;;;21.00;99.90;;;;;;4970226;28;20253;-47
2023/04/22 12:36:21;;;;;;;5.47;2.42;;;21.00;99.90;;;;;;4970139;28;20223;-47
2023/04/22 12:38:46;;;;;;;4.35;2.13;;;20.80;99.90;;;;;;4970392;28;20178;-47
2023/04/22 12:41:12;;;;;;;3.33;2.70;;;20.70;99.90;;;;;;4970149;28;20664;-47
2023/04/22 12:43:38;;;;;;;4.60;3.25;;;20.70;99.90;;;;;;4970006;28;20183;-46
2023/04/22 12:46:06;;;;;;;9.35;3.38;;;20.50;99.90;;;;;;4970357;28;20181;-47
2023/04/22 12:48:32;;;;;;;3.35;2.13;;;20.30;99.90;;;;;;4969917;28;20260;-47
2023/04/22 12:50:58;;;;;;;1.83;1.40;;;20.10;99.90;;;;;;4972570;28;20292;-48
2023/04/22 12:53:27;;;;;;;3.13;1.98;;;19.90;99.90;;;;;;4989239;28;20245;-48
2023/04/22 12:55:54;;;;;;;5.00;1.60;;;19.70;99.90;;;;;;4989274;28;20568;-52
2023/04/22 12:58:19;;;;;;;2.65;1.80;;;19.40;99.90;;;;;;4988263;28;20218;-53
2023/04/22 13:00:45;;;;;;;2.33;2.10;;;;;;;;;;4989301;28;20177;-50